Time;durP1;ratioP1;P1;durP2;ratioP2;P2;SDS_P1;SDS_P2;PMS_P1;PMS_P2;Temp;Humidity;BMP_temperature;BMP_pressure;BME280_temperature;BME280_humidity;BME280_pressure;Samples;Min_cycle;Max_cycle;Signal;HPM_P1;HPM_P2
2021/03/06 00:02:22;;;;;;;119.18;113.15;;;-3.50;99.90;;;;;;5012361;28;20274;-80
2021/03/06 00:04:48;;;;;;;132.60;126.00;;;-3.60;99.90;;;;;;5006561;28;20223;-80
2021/03/06 00:07:15;;;;;;;130.60;123.68;;;-3.30;99.90;;;;;;5006105;28;20669;-80
2021/03/06 00:09:44;;;;;;;127.78;121.13;;;-3.50;99.90;;;;;;5009265;28;20223;-80
2021/03/06 00:12:11;;;;;;;131.50;124.43;;;-3.60;99.90;;;;;;5006909;28;20244;-80
2021/03/06 00:14:38;;;;;;;135.23;127.78;;;-3.50;99.90;;;;;;5009018;28;20704;-80
2021/03/06 00:17:04;;;;;;;140.63;133.13;;;-3.50;99.90;;;;;;4994177;28;20226;-80
2021/03/06 00:19:30;;;;;;;137.35;129.77;;;-3.50;99.90;;;;;;4995454;28;20675;-80
2021/03/06 00:21:57;;;;;;;137.02;129.48;;;-3.50;99.90;;;;;;4996797;28;20241;-80
2021/03/06 00:24:24;;;;;;;135.77;128.45;;;-3.50;99.90;;;;;;5008954;28;20211;-80
2021/03/06 00:26:50;;;;;;;133.50;126.10;;;-3.60;99.90;;;;;;5009214;28;20194;-80
2021/03/06 00:29:17;;;;;;;127.90;121.00;;;-3.60;99.90;;;;;;5008464;28;20289;-80
2021/03/06 00:31:44;;;;;;;132.75;125.82;;;-3.60;99.90;;;;;;4993878;28;20290;-80
2021/03/06 00:34:10;;;;;;;126.60;119.90;;;-3.60;99.90;;;;;;5010232;28;20277;-80
2021/03/06 00:36:37;;;;;;;138.90;131.25;;;-3.60;99.90;;;;;;5004437;28;20276;-80
2021/03/06 00:39:04;;;;;;;133.02;126.03;;;-3.60;99.90;;;;;;5003222;28;20741;-80
2021/03/06 00:41:31;;;;;;;135.93;128.77;;;-3.70;99.90;;;;;;4993904;28;20206;-80
2021/03/06 00:43:58;;;;;;;132.18;125.28;;;-3.60;99.90;;;;;;5002096;28;20194;-80
2021/03/06 00:46:25;;;;;;;132.07;124.82;;;-3.60;99.90;;;;;;5013370;28;20202;-80
2021/03/06 00:48:51;;;;;;;135.65;128.30;;;-3.60;99.90;;;;;;4996242;28;20245;-80
2021/03/06 00:51:18;;;;;;;130.63;124.05;;;-3.50;99.90;;;;;;4991424;28;20233;-80
2021/03/06 00:53:45;;;;;;;131.52;124.72;;;-3.60;99.90;;;;;;5008697;28;20340;-80
2021/03/06 00:56:11;;;;;;;138.35;130.70;;;-3.60;99.90;;;;;;5013271;28;20225;-80
2021/03/06 00:58:37;;;;;;;140.82;133.77;;;-3.60;99.90;;;;;;4999705;28;20736;-80
2021/03/06 01:01:05;;;;;;;140.30;132.73;;;-3.60;99.90;;;;;;5013046;28;20194;-80
2021/03/06 01:03:33;;;;;;;133.48;126.25;;;-3.70;99.90;;;;;;5000536;28;20226;-80
2021/03/06 01:05:59;;;;;;;140.70;133.35;;;-3.70;99.90;;;;;;5008037;28;20281;-80
2021/03/06 01:08:26;;;;;;;142.15;134.57;;;-3.70;99.90;;;;;;5001253;28;20226;-80
2021/03/06 01:10:53;;;;;;;148.02;139.93;;;-3.70;99.90;;;;;;5000276;28;20669;-80
2021/03/06 01:13:20;;;;;;;144.98;136.68;;;-3.70;99.90;;;;;;5013219;28;20281;-80
2021/03/06 01:15:47;;;;;;;149.02;141.38;;;-3.70;99.90;;;;;;5007366;28;20230;-80
2021/03/06 01:18:13;;;;;;;153.45;145.25;;;-3.70;99.90;;;;;;4993327;28;20223;-80
2021/03/06 01:20:41;;;;;;;141.32;133.77;;;-3.70;99.90;;;;;;5007679;28;20222;-80
2021/03/06 01:23:08;;;;;;;145.45;137.20;;;-3.70;99.90;;;;;;4995555;28;20654;-80
2021/03/06 01:25:35;;;;;;;142.50;135.27;;;-3.60;99.90;;;;;;4993243;28;20205;-80
2021/03/06 01:28:01;;;;;;;138.70;131.23;;;-3.50;99.90;;;;;;5000989;28;20226;-80
2021/03/06 01:30:28;;;;;;;142.55;134.40;;;-3.50;99.90;;;;;;5005690;28;20234;-80
2021/03/06 01:32:54;;;;;;;144.85;135.85;;;-3.50;99.90;;;;;;4993203;28;20287;-80
2021/03/06 01:35:22;;;;;;;139.05;131.15;;;-3.60;99.90;;;;;;5002231;28;20944;-80
2021/03/06 01:37:51;;;;;;;137.95;130.40;;;-3.50;99.90;;;;;;5012856;28;20313;-81
2021/03/06 01:40:19;;;;;;;136.10;129.10;;;-3.50;99.90;;;;;;5001794;28;20191;-81
2021/03/06 01:42:46;;;;;;;133.40;126.40;;;-3.50;99.90;;;;;;5010128;28;20206;-80
2021/03/06 01:45:13;;;;;;;138.30;131.15;;;-3.60;99.90;;;;;;5004636;28;20216;-80
2021/03/06 01:47:39;;;;;;;128.60;121.90;;;-3.50;99.90;;;;;;5011437;28;20195;-80
2021/03/06 01:50:08;;;;;;;131.02;124.00;;;-3.50;99.90;;;;;;5005284;28;20580;-80
2021/03/06 01:52:34;;;;;;;128.13;121.28;;;-3.50;99.90;;;;;;5012460;28;20285;-80
2021/03/06 01:55:03;;;;;;;130.27;123.55;;;-3.50;99.90;;;;;;4992877;28;20650;-80
2021/03/06 01:57:30;;;;;;;132.85;126.05;;;-3.60;99.90;;;;;;4993367;28;20215;-80
2021/03/06 01:59:58;;;;;;;131.73;124.57;;;-3.60;99.90;;;;;;5005020;28;20234;-80
2021/03/06 02:02:26;;;;;;;134.93;127.45;;;-3.60;99.90;;;;;;5008827;28;20211;-80
2021/03/06 02:04:52;;;;;;;133.77;126.20;;;-3.60;99.90;;;;;;5007898;28;20268;-80
2021/03/06 02:07:18;;;;;;;127.80;121.10;;;-3.60;99.90;;;;;;5011026;28;20278;-80
2021/03/06 02:09:45;;;;;;;130.77;123.95;;;-3.60;99.90;;;;;;5001154;28;20187;-80
2021/03/06 02:12:21;;;;;;;125.40;119.07;;;-3.60;99.90;;;;;;5008980;28;20283;-80
2021/03/06 02:14:56;;;;;;;139.70;131.45;;;-3.70;99.90;;;;;;4997699;28;20281;-80
2021/03/06 02:17:32;;;;;;;132.48;125.15;;;-3.70;99.90;;;;;;5015908;28;20771;-80
2021/03/06 02:20:29;;;;;;;133.23;126.47;;;-3.90;99.90;;;;;;5002943;28;20226;-80
2021/03/06 02:23:30;;;;;;;131.57;124.60;;;-3.90;99.90;;;;;;4996291;28;20229;-80
2021/03/06 02:26:21;;;;;;;133.70;126.68;;;-3.90;99.90;;;;;;4971016;28;20190;-80
2021/03/06 02:28:59;;;;;;;134.27;127.25;;;-4.00;99.90;;;;;;4995768;28;20247;-81
2021/03/06 02:31:30;;;;;;;134.35;127.28;;;-4.00;99.90;;;;;;4996031;28;20206;-81
2021/03/06 02:34:05;;;;;;;135.75;128.75;;;-4.10;99.90;;;;;;4996457;28;20222;-80
2021/03/06 02:36:35;;;;;;;139.23;131.57;;;-4.10;99.90;;;;;;5014464;28;20241;-80
2021/03/06 02:39:04;;;;;;;134.35;127.65;;;-4.20;99.90;;;;;;5011261;28;20314;-80
2021/03/06 02:41:33;;;;;;;141.25;134.13;;;-4.30;99.90;;;;;;5000141;28;20195;-81
2021/03/06 02:44:01;;;;;;;138.23;130.93;;;-4.20;99.90;;;;;;5000154;28;20183;-81
2021/03/06 02:46:30;;;;;;;136.75;129.50;;;-4.30;99.90;;;;;;5015442;28;20729;-81
2021/03/06 02:48:57;;;;;;;149.88;142.30;;;-4.20;99.90;;;;;;5005625;28;20237;-80
2021/03/06 02:51:23;;;;;;;150.95;142.65;;;-4.30;99.90;;;;;;5014053;28;20227;-81
2021/03/06 02:53:50;;;;;;;151.90;144.18;;;-4.20;99.90;;;;;;5003440;28;20193;-80
2021/03/06 02:56:18;;;;;;;150.65;142.77;;;-4.10;99.90;;;;;;5015129;28;20289;-81
2021/03/06 02:59:11;;;;;;;150.93;143.25;;;-4.30;99.90;;;;;;4999990;28;20219;-80
2021/03/06 03:01:49;;;;;;;155.18;147.13;;;-4.20;99.90;;;;;;4996657;28;20289;-81
2021/03/06 03:04:24;;;;;;;153.73;145.65;;;-4.30;99.90;;;;;;4995400;28;20206;-81
2021/03/06 03:06:54;;;;;;;153.73;145.98;;;-4.30;99.90;;;;;;5006814;28;20553;-80
2021/03/06 03:09:25;;;;;;;163.45;155.43;;;-4.20;99.90;;;;;;5002704;28;20226;-81
2021/03/06 03:11:57;;;;;;;160.38;151.98;;;-4.20;99.90;;;;;;5001421;28;20199;-80
2021/03/06 03:14:30;;;;;;;154.02;146.02;;;-4.10;99.90;;;;;;5001522;28;20281;-81
2021/03/06 03:17:01;;;;;;;158.45;150.25;;;-4.20;99.90;;;;;;5006975;28;20278;-81
2021/03/06 03:19:32;;;;;;;155.27;147.27;;;-4.20;99.90;;;;;;4995302;28;20195;-81
2021/03/06 03:22:02;;;;;;;153.20;145.15;;;-4.10;99.90;;;;;;4999497;28;20290;-81
2021/03/06 03:24:34;;;;;;;156.68;148.35;;;-4.30;99.90;;;;;;5007911;28;20213;-81
2021/03/06 03:27:02;;;;;;;161.00;152.82;;;-4.20;99.90;;;;;;5014638;28;20241;-81
2021/03/06 03:29:30;;;;;;;152.30;144.23;;;-4.10;99.90;;;;;;5011249;28;20225;-81
2021/03/06 03:31:58;;;;;;;154.07;146.20;;;-4.10;99.90;;;;;;5005028;28;20662;-80
2021/03/06 03:34:27;;;;;;;161.27;153.07;;;-4.30;99.90;;;;;;4994712;28;20257;-81
2021/03/06 03:36:55;;;;;;;162.05;153.93;;;-4.20;99.90;;;;;;5008616;28;20190;-81
2021/03/06 03:39:21;;;;;;;166.52;157.50;;;-4.00;99.90;;;;;;5006745;28;20237;-82
2021/03/06 03:41:49;;;;;;;166.07;157.00;;;-3.90;99.90;;;;;;5003209;28;20615;-80
2021/03/06 03:44:19;;;;;;;162.38;152.70;;;-4.10;99.90;;;;;;4997601;28;20182;-81
2021/03/06 03:46:47;;;;;;;159.38;150.90;;;-4.10;99.90;;;;;;5008808;28;20209;-80
2021/03/06 03:49:18;;;;;;;160.18;151.00;;;-4.20;99.90;;;;;;4996870;28;20206;-81
2021/03/06 03:51:44;;;;;;;160.43;152.02;;;-4.20;99.90;;;;;;5011181;28;20739;-81
2021/03/06 03:54:12;;;;;;;164.85;156.20;;;-4.20;99.90;;;;;;4998451;28;20256;-81
2021/03/06 03:56:39;;;;;;;167.63;158.57;;;-4.10;99.90;;;;;;5002556;28;20287;-81
2021/03/06 03:59:08;;;;;;;164.05;155.18;;;-4.20;99.90;;;;;;5009174;28;20218;-80
2021/03/06 04:01:41;;;;;;;169.07;158.52;;;-4.10;99.90;;;;;;5002802;28;20221;-80
2021/03/06 04:04:08;;;;;;;170.65;161.38;;;-4.10;99.90;;;;;;5013895;28;20205;-81
2021/03/06 04:06:36;;;;;;;176.55;166.00;;;-4.00;99.90;;;;;;4998817;28;20596;-80
2021/03/06 04:09:03;;;;;;;192.68;182.23;;;-3.70;99.90;;;;;;4997088;28;20616;-81
2021/03/06 04:11:29;;;;;;;181.73;171.43;;;-3.60;99.90;;;;;;4994130;28;20195;-80
2021/03/06 04:13:55;;;;;;;189.52;178.80;;;-3.60;99.90;;;;;;4994046;28;20190;-80
2021/03/06 04:16:22;;;;;;;182.85;173.15;;;-3.80;99.90;;;;;;4993989;28;20199;-80
2021/03/06 04:18:48;;;;;;;175.85;166.60;;;-4.00;99.90;;;;;;5008305;28;20217;-80
2021/03/06 04:21:15;;;;;;;177.00;167.27;;;-4.00;99.90;;;;;;5012383;28;20229;-80
2021/03/06 04:23:42;;;;;;;174.48;165.05;;;-4.20;99.90;;;;;;5006634;28;20246;-81
2021/03/06 04:26:08;;;;;;;174.02;164.75;;;-4.10;99.90;;;;;;4994097;28;20191;-81
2021/03/06 04:28:35;;;;;;;168.68;159.43;;;-4.20;99.90;;;;;;4995024;28;20221;-80
2021/03/06 04:31:02;;;;;;;173.20;163.73;;;-4.20;99.90;;;;;;5009854;28;20205;-81
2021/03/06 04:33:29;;;;;;;174.50;163.93;;;-4.20;99.90;;;;;;5010559;28;20198;-81
2021/03/06 04:35:55;;;;;;;169.57;160.45;;;-4.10;99.90;;;;;;4992748;28;20199;-81
2021/03/06 04:38:22;;;;;;;164.70;155.30;;;-4.30;99.90;;;;;;4997232;28;20310;-80
2021/03/06 04:40:52;;;;;;;174.32;163.10;;;-4.30;99.90;;;;;;5012744;28;20205;-80
2021/03/06 04:43:18;;;;;;;163.15;154.18;;;-4.30;99.90;;;;;;5003356;28;20222;-80
2021/03/06 04:45:46;;;;;;;183.55;173.57;;;-4.40;99.90;;;;;;4993832;28;20337;-81
2021/03/06 04:48:12;;;;;;;181.73;171.20;;;-4.30;99.90;;;;;;4993808;28;20199;-80
2021/03/06 04:50:39;;;;;;;183.82;174.25;;;-4.30;99.90;;;;;;4992385;28;20278;-81
2021/03/06 04:53:05;;;;;;;168.63;159.57;;;-4.20;99.90;;;;;;4993864;28;20206;-81
2021/03/06 04:55:32;;;;;;;175.93;165.95;;;-3.90;99.90;;;;;;4993619;28;20226;-81
2021/03/06 04:57:59;;;;;;;171.38;161.82;;;-3.80;99.90;;;;;;5005639;28;20246;-81
2021/03/06 05:00:25;;;;;;;177.70;167.90;;;-3.80;99.90;;;;;;5008066;28;20268;-81
2021/03/06 05:02:52;;;;;;;184.25;174.30;;;-3.80;99.90;;;;;;4993084;28;20191;-81
2021/03/06 05:05:18;;;;;;;176.88;166.85;;;-3.80;99.90;;;;;;5007654;28;20217;-81
2021/03/06 05:07:45;;;;;;;173.65;163.48;;;-3.90;99.90;;;;;;5013152;28;20599;-81
2021/03/06 05:10:12;;;;;;;179.57;169.48;;;-3.90;99.90;;;;;;5011572;28;20268;-81
2021/03/06 05:12:38;;;;;;;173.40;163.68;;;-4.00;99.90;;;;;;5013029;28;20277;-81
2021/03/06 05:15:07;;;;;;;180.35;170.27;;;-4.10;99.90;;;;;;5012749;28;20557;-81
2021/03/06 05:17:34;;;;;;;172.10;162.88;;;-4.20;99.90;;;;;;5012878;28;20309;-81
2021/03/06 05:20:00;;;;;;;176.32;166.50;;;-4.30;99.90;;;;;;5001209;28;20225;-81
2021/03/06 05:22:29;;;;;;;177.02;167.80;;;-4.30;99.90;;;;;;4992282;28;20651;-82
2021/03/06 05:24:57;;;;;;;175.38;165.32;;;-4.40;99.90;;;;;;5003628;28;20213;-81
2021/03/06 05:27:25;;;;;;;182.93;173.10;;;-4.40;99.90;;;;;;5013006;28;20236;-82
2021/03/06 05:29:53;;;;;;;190.30;180.02;;;-4.40;99.90;;;;;;5003386;28;20222;-82
2021/03/06 05:32:21;;;;;;;185.90;175.82;;;-4.40;99.90;;;;;;4999470;28;20309;-81
2021/03/06 05:34:47;;;;;;;181.65;172.13;;;-4.40;99.90;;;;;;5012801;28;20226;-83
2021/03/06 05:37:13;;;;;;;181.55;171.32;;;-4.50;99.90;;;;;;5012190;28;20201;-80
2021/03/06 05:39:40;;;;;;;189.05;177.98;;;-4.40;99.90;;;;;;5014909;28;20250;-80
2021/03/06 05:42:09;;;;;;;193.23;183.38;;;-4.50;99.90;;;;;;5005172;28;20203;-80
2021/03/06 05:44:35;;;;;;;189.63;179.32;;;-4.50;99.90;;;;;;5016558;28;20198;-80
2021/03/06 05:47:03;;;;;;;199.07;188.20;;;-4.50;99.90;;;;;;5001307;28;20222;-80
2021/03/06 05:49:32;;;;;;;212.95;201.07;;;-4.30;99.90;;;;;;4996808;28;20651;-80
2021/03/06 05:52:00;;;;;;;184.10;174.05;;;-4.30;99.90;;;;;;4995431;28;20235;-80
2021/03/06 05:54:27;;;;;;;186.80;176.43;;;-4.40;99.90;;;;;;4996628;28;20313;-79
2021/03/06 05:56:55;;;;;;;184.32;173.73;;;-4.50;99.90;;;;;;4996994;28;20195;-80
2021/03/06 05:59:22;;;;;;;185.93;175.30;;;-4.50;99.90;;;;;;4996979;28;20222;-81
2021/03/06 06:01:49;;;;;;;194.50;183.15;;;-4.50;99.90;;;;;;5002060;28;20281;-80
2021/03/06 06:04:19;;;;;;;181.68;171.98;;;-4.50;99.90;;;;;;5016265;28;20225;-81
2021/03/06 06:06:47;;;;;;;184.48;173.93;;;-4.50;99.90;;;;;;5010176;28;20191;-81
2021/03/06 06:09:13;;;;;;;173.45;163.57;;;-4.20;99.90;;;;;;4996593;28;20298;-81
2021/03/06 06:11:40;;;;;;;178.52;169.15;;;-4.30;99.90;;;;;;4999378;28;20555;-81
2021/03/06 06:14:06;;;;;;;175.85;164.57;;;-4.10;99.90;;;;;;5015880;28;20194;-81
2021/03/06 06:16:34;;;;;;;173.95;163.40;;;-4.20;99.90;;;;;;5014037;28;20277;-81
2021/03/06 06:19:01;;;;;;;176.85;166.82;;;-4.20;99.90;;;;;;4996458;28;20289;-82
2021/03/06 06:21:44;;;;;;;174.05;164.27;;;-4.30;99.90;;;;;;4995593;28;20199;-80
2021/03/06 06:24:12;;;;;;;178.77;168.40;;;-4.20;99.90;;;;;;5015984;28;20198;-80
2021/03/06 06:26:40;;;;;;;172.02;161.25;;;-4.10;99.90;;;;;;5014193;28;20314;-80
2021/03/06 06:29:08;;;;;;;165.70;156.18;;;-4.00;99.90;;;;;;4996641;28;20712;-81
2021/03/06 06:31:34;;;;;;;169.52;159.68;;;-4.10;99.90;;;;;;5003637;28;20214;-82
2021/03/06 06:34:11;;;;;;;177.75;167.52;;;-4.10;99.90;;;;;;5013139;28;20201;-81
2021/03/06 06:36:39;;;;;;;174.45;164.05;;;-4.20;99.90;;;;;;5007158;28;20269;-82
2021/03/06 06:39:06;;;;;;;166.38;156.55;;;-4.20;99.90;;;;;;4997611;28;20687;-81
2021/03/06 06:42:02;;;;;;;168.70;159.05;;;-4.10;99.90;;;;;;5002538;28;20199;-82
2021/03/06 06:44:31;;;;;;;171.23;161.73;;;-4.00;99.90;;;;;;5011188;28;20194;-82
2021/03/06 06:47:21;;;;;;;171.68;161.75;;;-4.00;99.90;;;;;;5006066;28;20187;-82
2021/03/06 06:49:49;;;;;;;167.02;157.52;;;-3.90;99.90;;;;;;4995959;28;20191;-82
2021/03/06 06:52:19;;;;;;;170.40;159.90;;;-4.00;99.90;;;;;;4994786;28;20226;-81
2021/03/06 06:54:53;;;;;;;168.90;159.05;;;-3.90;99.90;;;;;;5008955;28;20772;-81
2021/03/06 06:57:21;;;;;;;168.05;158.85;;;-3.80;99.90;;;;;;5001623;28;20186;-82
2021/03/06 06:59:56;;;;;;;167.45;158.50;;;-3.60;99.90;;;;;;5013404;28;20280;-80
2021/03/06 07:02:28;;;;;;;178.20;168.13;;;-3.70;99.90;;;;;;4998118;28;20273;-82
2021/03/06 07:05:09;;;;;;;;;;;;;;;;;;;;;
2021/03/06 07:07:44;;;;;;;177.13;166.65;;;-3.40;99.90;;;;;;5007491;28;20261;-83
2021/03/06 07:10:16;;;;;;;174.55;164.00;;;-3.40;99.90;;;;;;5005626;28;20190;-81
2021/03/06 07:12:45;;;;;;;178.70;168.05;;;-3.30;99.90;;;;;;5001635;28;20223;-81
2021/03/06 07:15:18;;;;;;;185.63;174.27;;;-3.10;99.90;;;;;;5003194;28;20323;-82
2021/03/06 07:17:46;;;;;;;180.32;168.73;;;-3.00;99.90;;;;;;5003944;28;20277;-80
2021/03/06 07:20:27;;;;;;;195.02;182.13;;;-3.00;99.90;;;;;;4998331;28;20723;-80
2021/03/06 07:22:55;;;;;;;185.27;174.70;;;-2.90;99.90;;;;;;5002151;28;20750;-81
2021/03/06 07:25:23;;;;;;;186.27;175.63;;;-2.80;99.90;;;;;;5010833;28;20250;-81
2021/03/06 07:27:50;;;;;;;184.48;174.52;;;-2.60;99.90;;;;;;4998584;28;20621;-81
2021/03/06 07:30:19;;;;;;;199.38;187.75;;;-2.60;99.90;;;;;;5009720;28;20278;-81
2021/03/06 07:32:46;;;;;;;194.98;184.57;;;-2.40;99.90;;;;;;5010123;28;20664;-80
2021/03/06 07:35:15;;;;;;;219.77;207.95;;;-2.30;99.90;;;;;;4993709;28;20238;-80
2021/03/06 07:37:42;;;;;;;218.45;207.32;;;-2.20;99.90;;;;;;4997967;28;20716;-80
2021/03/06 07:40:10;;;;;;;217.57;205.80;;;-2.00;99.90;;;;;;5000563;28;20191;-81
2021/03/06 07:43:15;;;;;;;229.60;218.27;;;-1.90;99.90;;;;;;5000020;28;20230;-82
2021/03/06 07:45:48;;;;;;;236.70;224.95;;;-1.80;99.90;;;;;;5006666;28;20217;-81
2021/03/06 07:48:16;;;;;;;232.50;220.95;;;-1.70;99.90;;;;;;5009020;28;20194;-81
2021/03/06 07:50:44;;;;;;;229.60;217.35;;;-1.50;99.90;;;;;;5013214;28;20305;-81
2021/03/06 07:53:11;;;;;;;245.57;232.98;;;-1.30;99.90;;;;;;5012413;28;20190;-81
2021/03/06 07:55:39;;;;;;;279.45;266.50;;;-1.20;99.90;;;;;;5014353;28;20281;-81
2021/03/06 07:58:08;;;;;;;278.90;265.27;;;-1.20;99.90;;;;;;5004066;28;20844;-81
2021/03/06 08:00:46;;;;;;;278.67;265.58;;;-1.20;99.90;;;;;;5002262;28;20258;-80
2021/03/06 08:03:37;;;;;;;287.42;273.83;;;-1.10;99.90;;;;;;5004279;28;20194;-83
2021/03/06 08:06:18;;;;;;;304.77;291.10;;;-1.00;99.90;;;;;;5006432;28;20976;-80
2021/03/06 08:09:02;;;;;;;319.23;304.80;;;-0.80;99.90;;;;;;5009171;28;20717;-80
2021/03/06 08:11:41;;;;;;;305.38;292.08;;;-0.80;99.90;;;;;;4999624;28;20201;-80
2021/03/06 08:14:27;;;;;;;309.88;296.25;;;-0.80;99.90;;;;;;5009180;28;20201;-80
2021/03/06 08:16:53;;;;;;;311.52;297.80;;;-0.70;99.90;;;;;;5006708;28;20187;-80
2021/03/06 08:19:25;;;;;;;311.00;297.38;;;-0.70;99.90;;;;;;5001169;28;20297;-81
2021/03/06 08:21:56;;;;;;;299.48;286.60;;;-0.50;99.90;;;;;;5010278;28;20201;-81
2021/03/06 08:24:26;;;;;;;269.60;258.40;;;-0.50;99.90;;;;;;5006043;28;20226;-80
2021/03/06 08:27:14;;;;;;;267.58;254.82;;;-0.50;99.90;;;;;;5012718;28;20222;-81
2021/03/06 08:29:46;;;;;;;252.60;241.43;;;-0.40;99.90;;;;;;5013173;28;20201;-81
2021/03/06 08:32:13;;;;;;;240.75;230.07;;;-0.30;99.90;;;;;;5000607;28;20577;-82
2021/03/06 08:34:43;;;;;;;224.73;214.88;;;-0.20;99.90;;;;;;5010673;28;20301;-80
2021/03/06 08:37:29;;;;;;;230.27;219.70;;;-0.10;99.90;;;;;;5009439;28;20653;-80
2021/03/06 08:40:01;;;;;;;200.35;191.00;;;0.00;99.90;;;;;;4997766;28;20218;-80
2021/03/06 08:42:29;;;;;;;200.70;191.30;;;0.10;99.90;;;;;;5011306;28;20198;-81
2021/03/06 08:44:59;;;;;;;173.77;165.90;;;0.10;99.90;;;;;;5009536;28;20202;-80
2021/03/06 08:47:27;;;;;;;182.52;174.20;;;0.20;99.90;;;;;;5003462;28;20206;-80
2021/03/06 08:49:56;;;;;;;186.43;177.90;;;0.40;99.90;;;;;;4995113;28;20202;-80
2021/03/06 08:52:24;;;;;;;146.53;139.53;;;0.50;99.90;;;;;;4992627;28;20199;-80
2021/03/06 08:54:51;;;;;;;140.32;133.32;;;0.70;99.90;;;;;;5007448;28;20457;-80
2021/03/06 08:57:27;;;;;;;113.10;106.85;;;0.70;99.90;;;;;;5004345;28;20202;-81
2021/03/06 09:00:07;;;;;;;90.90;85.60;;;0.80;99.90;;;;;;5012235;28;20232;-83
2021/03/06 09:03:00;;;;;;;53.40;49.40;;;1.00;99.90;;;;;;4995287;28;20511;-82
2021/03/06 09:05:31;;;;;;;47.47;43.77;;;1.10;99.90;;;;;;5004800;28;20520;-83
2021/03/06 09:07:58;;;;;;;36.33;32.97;;;1.50;99.90;;;;;;5012318;28;20509;-80
2021/03/06 09:10:35;;;;;;;25.63;23.20;;;1.60;99.90;;;;;;4995724;28;20460;-81
2021/03/06 09:13:04;;;;;;;21.30;13.13;;;2.10;99.90;;;;;;5013094;28;20475;-81
2021/03/06 09:15:38;;;;;;;18.30;11.03;;;2.50;99.90;;;;;;5017122;28;20484;-80
2021/03/06 09:18:06;;;;;;;17.57;10.20;;;3.00;99.90;;;;;;5016819;28;20484;-81
2021/03/06 09:20:40;;;;;;;18.67;11.70;;;3.40;99.90;;;;;;5016494;28;20544;-82
2021/03/06 09:23:06;;;;;;;17.37;12.17;;;3.90;99.90;;;;;;5016934;28;20487;-81
2021/03/06 09:25:35;;;;;;;19.00;12.20;;;4.10;99.90;;;;;;5016757;28;20480;-80
2021/03/06 09:28:04;;;;;;;19.90;10.90;;;4.30;99.90;;;;;;5016725;28;20488;-81
2021/03/06 09:31:20;;;;;;;15.00;8.93;;;4.70;99.90;;;;;;5019399;28;20463;-83
2021/03/06 09:33:49;;;;;;;16.90;8.87;;;5.00;99.90;;;;;;5007577;28;20824;-82
2021/03/06 09:36:21;;;;;;;15.77;8.40;;;5.20;65.90;;;;;;5015452;28;20507;-82
2021/03/06 09:39:13;;;;;;;17.10;8.53;;;5.60;71.20;;;;;;5016279;28;20493;-83
2021/03/06 09:44:39;;;;;;;20.67;9.60;;;5.90;90.60;;;;;;5016325;28;20465;-83
2021/03/06 09:47:11;;;;;;;16.80;8.90;;;6.00;45.80;;;;;;5016218;28;20813;-83
2021/03/06 09:49:58;;;;;;;16.63;9.83;;;6.60;67.20;;;;;;5016363;28;20460;-83
2021/03/06 09:53:22;;;;;;;15.47;8.73;;;6.60;27.20;;;;;;4990399;28;20489;-83
2021/03/06 09:59:18;;;;;;;18.20;9.77;;;7.30;29.10;;;;;;4805686;29;20266;-82
2021/03/06 10:05:53;;;;;;;;;;;;;;;;;;;;;
2021/03/06 10:15:15;;;;;;;;;;;;;;;;;;;;;
2021/03/06 10:18:27;;;;;;;18.37;10.20;;;9.10;7.70;;;;;;4796903;29;20469;-82
2021/03/06 10:20:56;;;;;;;18.10;8.27;;;9.60;2.40;;;;;;4804532;29;20471;-82
2021/03/06 10:23:40;;;;;;;19.50;8.80;;;9.40;1.00;;;;;;4866735;29;21167;-80
2021/03/06 10:26:22;;;;;;;14.73;7.17;;;8.60;1.40;;;;;;4926004;29;20887;-82
2021/03/06 10:28:51;;;;;;;16.93;8.70;;;8.80;1.00;;;;;;4935507;29;20827;-82
2021/03/06 10:31:37;;;;;;;18.07;8.53;;;8.50;1.00;;;;;;4947536;28;20450;-82
2021/03/06 10:34:20;;;;;;;15.83;8.23;;;8.50;1.00;;;;;;5013767;28;20972;-82
2021/03/06 10:37:09;;;;;;;16.80;6.93;;;8.80;1.00;;;;;;5014118;28;20470;-80
2021/03/06 10:40:14;;;;;;;;;;;;;;;;;;;;;
2021/03/06 10:43:02;;;;;;;14.20;6.93;;;8.50;1.00;;;;;;4995845;28;20461;-85
2021/03/06 10:45:30;;;;;;;14.73;7.27;;;8.70;1.00;;;;;;4994678;28;20455;-82
2021/03/06 10:48:04;;;;;;;13.67;7.10;;;8.80;1.00;;;;;;4995610;28;20458;-81
2021/03/06 10:50:54;;;;;;;15.67;6.93;;;9.10;1.00;;;;;;4997437;28;20485;-83
2021/03/06 10:56:30;;;;;;;13.40;7.17;;;9.10;1.00;;;;;;4995895;28;20546;-89
2021/03/06 10:59:10;;;;;;;11.10;4.90;;;9.50;1.00;;;;;;4996914;28;20482;-87
2021/03/06 11:01:46;;;;;;;11.80;5.60;;;9.20;1.00;;;;;;4997894;28;20454;-82
2021/03/06 11:04:31;;;;;;;12.97;6.23;;;9.30;1.00;;;;;;4995275;28;20454;-84
2021/03/06 11:07:02;;;;;;;12.30;5.63;;;9.60;1.00;;;;;;5010930;28;20453;-82
2021/03/06 11:09:31;;;;;;;12.70;5.10;;;9.90;1.00;;;;;;5015007;28;20952;-83
2021/03/06 11:12:14;;;;;;;11.50;4.83;;;10.20;1.00;;;;;;4998314;28;20455;-82
2021/03/06 11:14:41;;;;;;;13.60;5.37;;;10.50;1.00;;;;;;4994953;28;20808;-82
2021/03/06 11:17:07;;;;;;;13.00;5.63;;;10.80;1.00;;;;;;5011705;28;20453;-82
2021/03/06 11:19:35;;;;;;;12.57;5.33;;;9.90;1.00;;;;;;5014703;28;20501;-83
2021/03/06 11:22:03;;;;;;;12.30;5.93;;;10.20;1.00;;;;;;5011615;28;20968;-83
2021/03/06 11:24:32;;;;;;;13.90;5.20;;;10.60;1.00;;;;;;5013031;28;20586;-84
2021/03/06 11:26:59;;;;;;;14.40;5.50;;;10.40;1.00;;;;;;5013097;28;20485;-82
2021/03/06 11:29:26;;;;;;;11.60;4.80;;;11.20;1.00;;;;;;5014113;28;20504;-82
2021/03/06 11:32:19;;;;;;;11.27;4.50;;;10.50;1.00;;;;;;4995041;28;20508;-83
2021/03/06 11:35:16;;;;;;;12.60;4.73;;;10.80;1.00;;;;;;4995830;28;20557;-84
2021/03/06 11:38:04;;;;;;;;;;;;;;;;;;;;;
2021/03/06 11:40:50;;;;;;;12.60;4.90;;;10.70;1.00;;;;;;5012663;28;20465;-83
2021/03/06 11:43:30;;;;;;;12.47;5.37;;;10.90;1.00;;;;;;5014445;28;20457;-84
2021/03/06 11:46:25;;;;;;;16.27;7.83;;;11.40;1.00;;;;;;5000477;28;20452;-83
2021/03/06 11:49:08;;;;;;;14.73;9.17;;;11.90;1.00;;;;;;4996519;28;20847;-82
2021/03/06 11:51:51;;;;;;;18.50;12.77;;;12.00;1.00;;;;;;5012838;28;20579;-82
2021/03/06 12:04:11;;;;;;;21.40;9.87;;;13.10;1.00;;;;;;4877365;29;20453;-83
2021/03/06 12:06:39;;;;;;;14.53;6.50;;;13.10;1.00;;;;;;4885816;29;20505;-83
2021/03/06 12:09:13;;;;;;;11.60;4.70;;;11.70;1.00;;;;;;4945246;28;20486;-83
2021/03/06 12:11:59;;;;;;;18.83;4.70;;;12.30;1.00;;;;;;4993933;28;20796;-83
2021/03/06 12:14:28;;;;;;;12.83;4.40;;;12.40;1.00;;;;;;4994331;28;20967;-83
2021/03/06 12:16:59;;;;;;;12.03;4.63;;;12.00;1.00;;;;;;4953151;28;20960;-84
2021/03/06 12:26:09;;;;;;;;;;;;;;;;;;;;;
2021/03/06 12:39:48;;;;;;;12.70;4.00;;;14.50;1.00;;;;;;6030759;22;5613346;-82
2021/03/06 12:59:49;;;;;;;11.67;3.53;;;15.00;1.00;;;;;;5979904;23;20454;-82
2021/03/06 13:05:50;;;;;;;;;;;;;;;;;;;;;
2021/03/06 13:11:50;;;;;;;12.90;3.53;;;15.50;1.00;;;;;;6040474;23;20427;-82
2021/03/06 13:14:46;;;;;;;11.50;4.10;;;15.20;1.00;;;;;;6015850;23;20459;-82
2021/03/06 13:17:51;;;;;;;;;;;;;;;;;;;;;
2021/03/06 13:20:29;;;;;;;11.40;3.87;;;13.80;1.00;;;;;;6091105;23;20412;-82
2021/03/06 13:23:27;;;;;;;;;;;;;;;;;;;;;
2021/03/06 13:26:03;;;;;;;;;;;;;;;;;;;;;
2021/03/06 13:35:26;;;;;;;10.57;3.20;;;13.60;1.00;;;;;;6202965;23;20430;-82
2021/03/06 13:44:36;;;;;;;12.67;3.53;;;13.30;1.00;;;;;;6009055;23;20432;-83
2021/03/06 13:47:18;;;;;;;;;;;;;;;;;;;;;
2021/03/06 13:49:44;;;;;;;14.07;3.90;;;11.90;1.00;;;;;;6154033;23;20479;-80
2021/03/06 13:52:20;;;;;;;11.57;4.00;;;11.20;1.00;;;;;;6185028;23;20480;-80
2021/03/06 13:54:46;;;;;;;13.77;4.87;;;10.80;1.00;;;;;;6186613;23;20443;-80
2021/03/06 13:57:15;;;;;;;10.93;3.97;;;10.40;1.00;;;;;;6196379;23;20402;-79
2021/03/06 13:59:42;;;;;;;11.90;3.70;;;9.70;1.00;;;;;;6196778;23;20436;-80
2021/03/06 14:02:08;;;;;;;11.17;4.23;;;9.70;1.00;;;;;;6196791;23;20433;-80
2021/03/06 14:04:35;;;;;;;12.35;4.80;;;9.70;1.00;;;;;;6186152;23;20419;-80
2021/03/06 14:07:09;;;;;;;10.93;3.67;;;9.30;1.00;;;;;;6185014;23;20182;-81
2021/03/06 14:12:56;;;;;;;12.10;3.73;;;8.90;1.00;;;;;;6168234;23;20405;-81
2021/03/06 14:15:24;;;;;;;10.00;3.83;;;8.90;1.00;;;;;;6186596;23;20488;-82
2021/03/06 14:17:51;;;;;;;10.47;3.60;;;8.70;1.00;;;;;;6186645;23;20708;-81
2021/03/06 14:20:21;;;;;;;12.40;3.30;;;8.60;1.00;;;;;;6195664;23;20898;-82
2021/03/06 14:22:48;;;;;;;12.97;4.50;;;8.60;1.00;;;;;;6196407;23;20451;-82
2021/03/06 14:25:15;;;;;;;10.83;3.60;;;8.60;1.00;;;;;;6196044;23;20464;-81
2021/03/06 14:27:43;;;;;;;11.10;3.93;;;8.80;1.00;;;;;;6186784;23;20432;-82